Time;durP1;ratioP1;P1;durP2;ratioP2;P2;SDS_P1;SDS_P2;PMS_P1;PMS_P2;Temp;Humidity;BMP_temperature;BMP_pressure;BME280_temperature;BME280_humidity;BME280_pressure;Samples;Min_cycle;Max_cycle;Signal;HPM_P1;HPM_P2
2024/03/04 00:00:16;;;;;;;8.25;7.45;;;;;;;4.50;100.00;149799.84;10625959;27;20092;-71
2024/03/04 00:05:18;;;;;;;11.30;8.95;;;;;;;4.33;100.00;149757.44;10626375;27;20054;-72
2024/03/04 00:10:20;;;;;;;8.65;7.22;;;;;;;3.94;100.00;149658.50;10608272;27;20066;-71
2024/03/04 00:15:23;;;;;;;9.30;8.27;;;;;;;4.15;100.00;149711.19;10625487;27;20092;-72
2024/03/04 00:20:24;;;;;;;9.25;8.00;;;;;;;4.02;100.00;149680.34;10625733;27;20387;-72
2024/03/04 00:25:26;;;;;;;8.45;7.63;;;;;;;3.76;100.00;149613.56;10625276;27;20039;-70
2024/03/04 00:30:28;;;;;;;8.35;7.45;;;;;;;3.87;100.00;149641.84;10607431;27;20103;-71
2024/03/04 00:35:29;;;;;;;8.20;7.50;;;;;;;3.90;100.00;149649.56;10625674;27;20126;-70
2024/03/04 00:40:31;;;;;;;8.38;7.55;;;;;;;3.76;100.00;149614.88;10625715;27;20096;-70
2024/03/04 00:45:33;;;;;;;8.93;6.78;;;;;;;3.69;100.00;149595.63;10624536;27;20042;-70
2024/03/04 00:50:36;;;;;;;9.57;7.32;;;;;;;3.53;100.00;149555.78;10624303;27;20045;-71
2024/03/04 00:55:38;;;;;;;7.43;6.65;;;;;;;3.44;100.00;149533.97;10606557;27;20035;-71
2024/03/04 01:00:39;;;;;;;7.15;6.43;;;;;;;3.48;100.00;149544.25;10624850;27;20039;-71
2024/03/04 01:05:41;;;;;;;9.25;7.35;;;;;;;3.54;100.00;149559.66;10624566;28;20035;-71
2024/03/04 01:10:44;;;;;;;10.48;7.30;;;;;;;3.93;100.00;149657.22;10605906;28;20080;-71
2024/03/04 01:15:47;;;;;;;8.02;7.22;;;;;;;3.58;100.00;149567.34;10624140;28;20063;-71
2024/03/04 01:20:49;;;;;;;10.25;7.28;;;;;;;3.54;100.00;149559.66;10624000;28;20122;-71
2024/03/04 01:25:51;;;;;;;12.50;7.93;;;;;;;3.51;100.00;149551.94;10624386;28;20065;-71
2024/03/04 01:30:55;;;;;;;9.13;7.70;;;;;;;3.44;100.00;149533.97;10623534;28;20388;-71
2024/03/04 01:35:57;;;;;;;8.70;7.82;;;;;;;3.19;100.00;149469.81;10624129;28;20035;-71
2024/03/04 01:40:58;;;;;;;7.75;6.78;;;;;;;3.37;100.00;149514.75;10623174;28;20054;-71
2024/03/04 01:46:00;;;;;;;7.78;7.00;;;;;;;3.07;100.00;149439.00;10623831;28;20530;-72
2024/03/04 01:51:02;;;;;;;7.28;6.50;;;;;;;2.96;100.00;149412.00;10604896;28;20057;-71
2024/03/04 01:56:06;;;;;;;7.90;7.10;;;;;;;3.31;100.00;149499.31;10623291;28;20035;-71
2024/03/04 02:01:08;;;;;;;7.22;6.53;;;;;;;3.03;100.00;149431.28;10623666;28;20039;-71
2024/03/04 02:06:10;;;;;;;7.78;7.00;;;;;;;2.92;100.00;149403.06;10623854;28;20043;-71
2024/03/04 02:11:12;;;;;;;8.68;7.82;;;;;;;3.02;100.00;149428.72;10628134;27;20387;-71
2024/03/04 02:16:14;;;;;;;7.32;6.55;;;;;;;2.80;100.00;149372.25;10631093;27;20039;-71
2024/03/04 02:21:21;;;;;;;8.32;6.50;;;;;;;2.84;100.00;149382.53;10630804;27;20198;-71
2024/03/04 02:26:23;;;;;;;;;;;;;;;3.28;100.00;149492.91;10631045;27;20044;-71
2024/03/04 02:31:25;;;;;;;7.78;6.45;;;;;;;2.81;100.00;149373.53;10629815;27;19923;-71
2024/03/04 02:36:27;;;;;;;8.48;6.97;;;;;;;2.90;100.00;149397.91;10629608;27;20095;-71
2024/03/04 02:41:29;;;;;;;8.02;7.22;;;;;;;3.04;100.00;149432.56;10629413;27;20104;-71
2024/03/04 02:46:30;;;;;;;10.05;8.18;;;;;;;2.97;100.00;149415.91;10629261;27;20498;-71
2024/03/04 02:51:33;;;;;;;9.00;8.07;;;;;;;2.76;100.00;149362.00;10629430;27;20040;-71
2024/03/04 02:56:35;;;;;;;8.82;7.80;;;;;;;2.68;100.00;149341.44;10629572;27;20054;-71
2024/03/04 03:01:38;;;;;;;9.18;8.00;;;;;;;3.04;100.00;149433.84;10628801;27;20074;-71
2024/03/04 03:06:40;;;;;;;8.98;7.88;;;;;;;3.03;100.00;149430.00;10629135;27;20242;-71
2024/03/04 03:11:41;;;;;;;8.35;7.53;;;;;;;2.68;100.00;149341.44;10628602;27;20107;-71
2024/03/04 03:16:43;;;;;;;8.77;7.88;;;;;;;2.49;100.00;149294.00;10628351;27;20096;-71
2024/03/04 03:21:45;;;;;;;8.75;6.82;;;;;;;2.50;100.00;149296.53;10626798;27;20042;-71
2024/03/04 03:26:47;;;;;;;8.93;8.02;;;;;;;2.36;100.00;149260.63;10628572;27;20130;-72
2024/03/04 03:31:49;;;;;;;10.70;7.15;;;;;;;2.28;100.00;149242.66;10610869;27;20063;-71
2024/03/04 03:36:50;;;;;;;9.93;7.05;;;;;;;2.64;100.00;149331.19;10609091;27;20130;-72
2024/03/04 03:41:53;;;;;;;12.15;7.53;;;;;;;2.76;100.00;149363.25;10627099;27;20123;-71
2024/03/04 03:46:54;;;;;;;10.55;8.10;;;;;;;2.61;100.00;149323.47;10626988;27;20069;-71
2024/03/04 03:51:56;;;;;;;8.00;7.20;;;;;;;2.18;100.00;149215.75;10626661;27;20046;-71
2024/03/04 03:56:58;;;;;;;8.20;7.22;;;;;;;2.03;100.00;149179.81;10626765;27;20404;-72
2024/03/04 04:02:00;;;;;;;8.13;7.07;;;;;;;2.09;100.00;149192.66;10626509;27;20070;-71
2024/03/04 04:07:02;;;;;;;9.93;8.23;;;;;;;2.37;100.00;149264.47;10626373;27;20045;-72
2024/03/04 04:12:06;;;;;;;8.73;7.82;;;;;;;2.32;100.00;149251.66;10625847;27;20417;-72
2024/03/04 04:17:08;;;;;;;9.00;8.07;;;;;;;2.09;100.00;149192.66;10625563;27;20043;-71
2024/03/04 04:22:10;;;;;;;11.80;8.55;;;;;;;2.15;100.00;149208.03;10625666;27;20043;-72
2024/03/04 04:27:12;;;;;;;10.38;8.88;;;;;;;2.38;100.00;149267.03;10625514;27;20502;-72
2024/03/04 04:32:13;;;;;;;9.75;8.80;;;;;;;2.28;100.00;149241.38;10624923;27;20039;-72
2024/03/04 04:37:15;;;;;;;9.88;8.93;;;;;;;1.97;100.00;149164.44;10625868;27;20130;-72
2024/03/04 04:42:17;;;;;;;10.82;9.82;;;;;;;1.93;100.00;149154.16;10625502;27;20046;-72
2024/03/04 04:47:19;;;;;;;11.30;9.35;;;;;;;2.09;100.00;149193.94;10625740;27;20043;-71
2024/03/04 04:52:21;;;;;;;11.60;9.98;;;;;;;1.95;100.00;149158.06;10625246;27;20456;-72
2024/03/04 04:57:25;;;;;;;11.20;9.40;;;;;;;1.86;100.00;149134.94;10625703;27;20063;-71
2024/03/04 05:02:28;;;;;;;11.20;8.45;;;;;;;1.81;100.00;149122.13;10624667;27;20069;-72
2024/03/04 05:07:30;;;;;;;10.63;9.50;;;;;;;1.99;100.00;149169.59;10624087;27;20039;-71
2024/03/04 05:12:33;;;;;;;12.02;9.68;;;;;;;2.07;100.00;149188.78;10626161;28;20110;-71
2024/03/04 05:17:36;;;;;;;14.40;9.80;;;;;;;1.97;100.00;149163.16;10625138;28;20491;-71
2024/03/04 05:22:38;;;;;;;11.18;9.98;;;;;;;1.98;100.00;149167.00;10607251;28;20047;-73
2024/03/04 05:27:40;;;;;;;12.57;10.80;;;;;;;2.02;100.00;149177.25;10626041;28;20047;-72
2024/03/04 05:32:43;;;;;;;10.45;9.35;;;;;;;2.08;100.00;149191.41;10625367;28;20506;-71
2024/03/04 05:37:45;;;;;;;13.25;10.70;;;;;;;2.03;100.00;149179.81;10624441;28;20070;-72
2024/03/04 05:42:47;;;;;;;9.60;8.70;;;;;;;2.24;100.00;149231.13;10623937;27;20483;-71
2024/03/04 05:47:52;;;;;;;9.45;8.52;;;;;;;2.04;100.00;149181.13;10632632;27;20043;-72
2024/03/04 05:52:55;;;;;;;9.38;8.45;;;;;;;1.85;100.00;149132.38;10633049;27;20452;-73
2024/03/04 05:57:56;;;;;;;29.10;15.30;;;;;;;1.83;100.00;149127.28;10632512;27;20464;-71
2024/03/04 06:02:58;;;;;;;43.47;18.10;;;;;;;1.77;100.00;149113.13;10633134;27;20047;-71
2024/03/04 06:08:01;;;;;;;15.40;13.30;;;;;;;2.00;100.00;149170.88;10633192;27;20051;-71
2024/03/04 06:13:04;;;;;;;20.35;17.77;;;;;;;1.91;100.00;149149.06;10631764;27;20121;-72
2024/03/04 06:18:06;;;;;;;18.77;14.35;;;;;;;2.36;100.00;149260.63;10630775;27;20043;-72
2024/03/04 06:23:07;;;;;;;12.15;11.00;;;;;;;3.03;100.00;149431.28;10631705;27;20042;-72
2024/03/04 06:28:09;;;;;;;11.10;9.60;;;;;;;2.96;100.00;149413.28;10631050;27;20100;-72
2024/03/04 06:33:11;;;;;;;15.25;13.20;;;;;;;2.85;100.00;149383.81;10612718;27;20084;-72
2024/03/04 06:38:13;;;;;;;13.55;11.25;;;;;;;3.58;100.00;149567.34;10630043;27;20506;-71
2024/03/04 06:43:16;;;;;;;10.85;9.85;;;;;;;4.30;100.00;149751.03;10630060;27;20039;-72
2024/03/04 06:48:18;;;;;;;9.77;8.85;;;;;;;4.46;100.00;149789.56;10612504;27;20042;-72
2024/03/04 06:53:20;;;;;;;11.38;9.15;;;;;;;5.10;100.00;149951.53;10629101;27;20042;-71
2024/03/04 06:58:23;;;;;;;9.00;7.75;;;;;;;5.52;100.00;150056.94;10611414;27;20138;-71
2024/03/04 07:03:25;;;;;;;9.05;8.15;;;;;;;5.86;100.00;150141.88;10610954;27;20088;-71
2024/03/04 07:08:26;;;;;;;9.73;7.68;;;;;;;5.42;100.00;150032.53;10629000;27;20487;-71
2024/03/04 07:13:32;;;;;;;10.48;8.52;;;;;;;4.84;100.00;149884.69;10628779;27;20450;-71
2024/03/04 07:18:34;;;;;;;9.82;8.82;;;;;;;4.93;100.00;149909.09;10628737;27;20508;-71
2024/03/04 07:23:37;;;;;;;8.73;7.85;;;;;;;4.99;100.00;149924.50;10628239;27;20122;-72
2024/03/04 07:28:43;;;;;;;8.15;7.35;;;;;;;5.24;100.00;149987.53;10609456;27;20051;-72
2024/03/04 07:33:46;;;;;;;8.23;7.27;;;;;;;5.04;100.00;149937.34;10627719;27;20039;-72
2024/03/04 07:38:48;;;;;;;8.23;7.28;;;;;;;5.01;100.00;149928.41;10609034;27;20047;-72
2024/03/04 07:43:49;;;;;;;13.55;8.00;;;;;;;4.97;100.00;149919.38;10609871;27;20043;-72
2024/03/04 07:48:51;;;;;;;9.93;8.20;;;;;;;5.16;100.00;149966.94;10627177;27;20047;-72
2024/03/04 07:53:54;;;;;;;10.32;7.50;;;;;;;5.57;100.00;150071.09;10626793;27;20067;-72
2024/03/04 07:58:55;;;;;;;7.45;6.75;;;;;;;5.98;100.00;150172.78;10607722;27;20134;-72
2024/03/04 08:03:57;;;;;;;10.52;7.65;;;;;;;5.74;100.00;150112.25;10626320;27;20122;-72
2024/03/04 08:08:59;;;;;;;8.32;7.55;;;;;;;6.00;100.00;150177.94;10625311;27;20104;-72
2024/03/04 08:14:01;;;;;;;10.18;7.82;;;;;;;6.11;100.00;150206.25;10625738;27;20077;-71
2024/03/04 08:19:04;;;;;;;11.55;8.30;;;;;;;6.26;100.00;150244.84;10626257;27;20043;-72
2024/03/04 08:24:06;;;;;;;11.65;8.63;;;;;;;6.37;100.00;150271.84;10625411;27;20081;-72
2024/03/04 08:29:07;;;;;;;10.65;9.35;;;;;;;6.64;100.00;150338.75;10625405;27;20039;-72
2024/03/04 08:34:09;;;;;;;9.88;8.88;;;;;;;6.67;100.00;150347.78;10630463;27;20095;-73
2024/03/04 08:39:11;;;;;;;11.98;10.70;;;;;;;6.91;100.00;150408.31;10638606;27;20047;-73
2024/03/04 08:44:14;;;;;;;12.25;11.05;;;;;;;7.08;100.00;150450.78;10624490;27;20039;-73
2024/03/04 08:49:16;;;;;;;10.45;9.43;;;;;;;7.24;100.00;150490.72;10624965;27;20471;-73
2024/03/04 08:54:17;;;;;;;10.40;9.30;;;;;;;7.72;99.90;150613.09;10596556;27;20036;-73
2024/03/04 08:59:19;;;;;;;10.70;9.63;;;;;;;7.77;99.73;150624.69;10582076;28;20045;-73
2024/03/04 09:04:21;;;;;;;10.13;9.10;;;;;;;7.97;100.00;150674.91;10582146;28;20044;-72
2024/03/04 09:09:23;;;;;;;14.05;11.85;;;;;;;8.19;99.74;150730.31;10581471;28;20039;-72
2024/03/04 09:14:25;;;;;;;12.40;11.13;;;;;;;8.17;100.00;150726.47;10581394;28;20084;-72
2024/03/04 09:19:27;;;;;;;14.40;11.23;;;;;;;8.31;100.00;150762.56;10583948;28;20040;-72
2024/03/04 09:24:29;;;;;;;13.40;12.05;;;;;;;8.54;99.31;150819.31;10572699;28;20221;-72
2024/03/04 09:29:31;;;;;;;13.00;11.48;;;;;;;8.89;96.29;150908.28;10591509;28;20050;-72
2024/03/04 09:34:32;;;;;;;15.77;12.85;;;;;;;8.77;96.85;150878.66;10614148;27;20123;-71
2024/03/04 09:39:34;;;;;;;18.42;13.77;;;;;;;8.92;96.92;150914.75;10633009;27;20047;-71
2024/03/04 09:44:36;;;;;;;18.58;13.25;;;;;;;8.98;96.09;150930.19;10632263;27;20103;-73
2024/03/04 09:49:38;;;;;;;14.85;11.93;;;;;;;8.94;95.02;150921.22;10630687;27;20086;-72
2024/03/04 09:54:41;;;;;;;13.70;12.27;;;;;;;9.08;96.08;150957.31;10631784;27;20035;-72
2024/03/04 09:59:43;;;;;;;16.67;13.93;;;;;;;9.09;95.81;150958.59;10631914;27;20041;-72
2024/03/04 10:04:46;;;;;;;17.70;12.50;;;;;;;9.35;95.14;151024.38;10631729;27;20042;-72
2024/03/04 10:09:54;;;;;;;16.38;13.77;;;;;;;9.60;93.46;151088.84;10632190;27;20035;-73
2024/03/04 10:15:00;;;;;;;14.48;12.60;;;;;;;10.07;90.95;151207.59;10631106;27;20059;-73
2024/03/04 10:20:13;;;;;;;11.98;10.85;;;;;;;10.37;89.49;151281.25;10631452;27;20102;-72
2024/03/04 10:25:15;;;;;;;12.80;11.43;;;;;;;10.82;86.88;151396.13;10632879;27;20046;-72
2024/03/04 10:30:19;;;;;;;16.85;11.40;;;;;;;11.42;83.59;151547.25;10632126;27;20053;-71
2024/03/04 10:35:27;;;;;;;13.68;12.32;;;;;;;11.77;83.48;151636.41;10633707;27;20039;-71
2024/03/04 10:40:34;;;;;;;10.68;9.60;;;;;;;12.52;78.17;151826.47;10630078;27;20118;-72
2024/03/04 10:45:37;;;;;;;11.23;10.13;;;;;;;12.56;79.08;151836.84;10630157;27;20035;-72
2024/03/04 10:50:39;;;;;;;11.80;10.60;;;;;;;12.91;76.41;151924.78;10628012;27;20075;-71
2024/03/04 10:55:41;;;;;;;11.93;10.82;;;;;;;12.90;77.35;151923.50;10629366;27;20062;-71
2024/03/04 11:00:43;;;;;;;10.70;9.07;;;;;;;13.30;74.30;152025.72;10628890;27;20360;-72
2024/03/04 11:05:50;;;;;;;9.70;8.77;;;;;;;13.79;72.40;152148.66;10628629;27;20035;-71
2024/03/04 11:11:13;;;;;;;10.77;9.73;;;;;;;14.14;72.97;152239.28;10629824;27;20043;-71
2024/03/04 11:16:26;;;;;;;9.68;8.77;;;;;;;14.05;70.56;152214.69;10629334;27;20043;-71
2024/03/04 11:21:28;;;;;;;11.32;10.18;;;;;;;14.14;71.02;152238.00;10609963;27;20058;-71
2024/03/04 11:26:31;;;;;;;10.27;9.27;;;;;;;14.23;69.20;152260.00;10627954;27;20039;-73
2024/03/04 11:31:33;;;;;;;10.00;9.10;;;;;;;13.96;70.92;152191.38;10627047;27;20047;-72
2024/03/04 11:36:35;;;;;;;10.50;9.50;;;;;;;13.82;72.56;152156.44;10627926;27;20043;-73
2024/03/04 11:41:37;;;;;;;10.18;9.38;;;;;;;14.14;70.45;152238.00;10627213;27;20047;-73
2024/03/04 11:46:41;;;;;;;10.50;9.50;;;;;;;14.48;69.51;152323.47;10626519;27;20039;-72
2024/03/04 11:51:44;;;;;;;10.90;9.77;;;;;;;14.32;70.26;152284.59;10627227;27;20046;-71
2024/03/04 11:56:49;;;;;;;11.75;10.70;;;;;;;14.46;71.30;152319.53;10627097;27;20036;-71
2024/03/04 12:01:52;;;;;;;11.57;10.50;;;;;;;14.73;71.10;152388.22;10627694;27;20043;-71
2024/03/04 12:06:54;;;;;;;18.17;11.98;;;;;;;15.02;68.20;152460.78;10628534;27;20066;-72
2024/03/04 12:11:56;;;;;;;11.68;10.57;;;;;;;14.87;68.80;152423.19;10627575;27;20043;-72
2024/03/04 12:16:58;;;;;;;11.10;10.10;;;;;;;14.68;69.45;152375.28;10627767;27;20462;-72
2024/03/04 12:22:00;;;;;;;12.40;10.93;;;;;;;14.55;70.33;152342.91;10626997;27;20464;-73
2024/03/04 12:27:02;;;;;;;12.73;11.52;;;;;;;13.78;72.48;152146.09;10626273;27;20043;-72
2024/03/04 12:32:05;;;;;;;12.57;11.38;;;;;;;13.81;77.35;152155.16;10626949;27;20047;-72
2024/03/04 12:37:06;;;;;;;13.73;11.57;;;;;;;13.82;75.67;152157.75;10624691;27;20049;-72
2024/03/04 12:42:08;;;;;;;13.93;12.63;;;;;;;13.55;76.85;152089.16;10647725;27;20043;-71
2024/03/04 12:47:12;;;;;;;12.60;11.50;;;;;;;13.21;80.00;152002.41;10611127;27;20062;-71
2024/03/04 12:52:14;;;;;;;13.02;11.38;;;;;;;13.20;81.08;151999.81;10624839;27;20070;-71
2024/03/04 12:57:15;;;;;;;14.30;12.90;;;;;;;12.84;85.23;151908.00;10627764;27;20042;-71
2024/03/04 13:02:17;;;;;;;14.40;13.20;;;;;;;12.81;83.92;151901.50;10625571;27;20063;-71
2024/03/04 13:07:19;;;;;;;14.30;13.10;;;;;;;12.71;84.61;151875.66;10624724;27;20114;-72
2024/03/04 13:12:21;;;;;;;13.88;12.68;;;;;;;12.46;85.64;151812.28;10625149;28;20050;-72
2024/03/04 13:17:23;;;;;;;13.63;12.45;;;;;;;12.44;85.96;151807.13;10625121;28;20126;-72
2024/03/04 13:22:25;;;;;;;12.80;11.70;;;;;;;12.60;86.17;151848.47;10624822;28;20045;-71
2024/03/04 13:27:27;;;;;;;11.75;10.75;;;;;;;12.43;86.08;151803.22;10625262;28;20050;-71
2024/03/04 13:32:29;;;;;;;12.32;11.23;;;;;;;12.35;85.25;151783.81;10624648;28;20114;-72
2024/03/04 13:37:31;;;;;;;12.05;11.05;;;;;;;12.10;87.09;151720.50;10624228;28;20031;-72
2024/03/04 13:42:32;;;;;;;13.00;11.90;;;;;;;11.88;87.44;151664.91;10623835;28;20047;-72
2024/03/04 13:47:35;;;;;;;13.85;12.65;;;;;;;11.85;87.33;151657.13;10623436;28;20114;-72
2024/03/04 13:52:37;;;;;;;13.88;12.68;;;;;;;11.73;87.62;151627.41;10623959;28;20043;-72
2024/03/04 13:57:41;;;;;;;11.68;10.68;;;;;;;11.72;87.01;151624.78;10606666;28;20071;-71
2024/03/04 14:02:43;;;;;;;12.68;11.57;;;;;;;11.79;86.21;151642.88;10623318;28;20047;-71
2024/03/04 14:07:45;;;;;;;13.02;10.70;;;;;;;11.79;87.18;151642.88;10629596;27;20054;-71
2024/03/04 14:12:46;;;;;;;13.10;11.90;;;;;;;11.53;88.70;151575.69;10632414;27;20092;-71
2024/03/04 14:17:49;;;;;;;13.80;12.50;;;;;;;11.30;89.90;151517.56;10630524;27;20058;-72
2024/03/04 14:22:51;;;;;;;14.38;13.07;;;;;;;11.24;90.24;151503.31;10628611;27;20406;-72
2024/03/04 14:27:53;;;;;;;14.45;13.05;;;;;;;11.27;91.08;151511.09;10630319;27;20086;-70
2024/03/04 14:32:55;;;;;;;15.80;14.40;;;;;;;11.52;88.45;151573.13;10630361;27;20043;-72
2024/03/04 14:37:56;;;;;;;19.42;17.35;;;;;;;11.24;90.76;151503.31;10630776;27;20042;-71
2024/03/04 14:42:59;;;;;;;20.50;18.33;;;;;;;10.78;95.43;151385.81;10631431;27;20050;-72
2024/03/04 14:48:02;;;;;;;27.60;20.52;;;;;;;10.72;97.09;151371.63;10630023;27;20035;-72
2024/03/04 14:53:04;;;;;;;30.63;22.80;;;;;;;10.53;99.27;151323.81;10630676;27;20047;-72
2024/03/04 14:58:05;;;;;;;41.58;26.25;;;;;;;10.19;100.00;151237.28;10611459;27;20141;-71
2024/03/04 15:03:08;;;;;;;43.15;27.73;;;;;;;10.16;100.00;151228.25;10628958;27;20039;-71
2024/03/04 15:08:10;;;;;;;42.85;27.33;;;;;;;10.09;100.00;151212.78;10628482;27;20086;-71
2024/03/04 15:13:12;;;;;;;56.63;28.20;;;;;;;10.01;100.00;151190.84;10628886;27;20053;-71
2024/03/04 15:18:14;;;;;;;52.35;29.95;;;;;;;9.96;100.00;151177.88;10628889;27;20502;-71
2024/03/04 15:23:23;;;;;;;50.13;29.10;;;;;;;9.76;100.00;151127.59;10628726;27;20051;-71
2024/03/04 15:28:24;;;;;;;49.33;28.77;;;;;;;9.58;100.00;151083.72;10628574;27;20045;-71
2024/03/04 15:33:26;;;;;;;54.83;30.15;;;;;;;9.27;100.00;151005.03;10628354;27;20039;-71
2024/03/04 15:38:28;;;;;;;52.85;29.65;;;;;;;9.42;100.00;151041.13;10609836;27;20446;-70
2024/03/04 15:43:30;;;;;;;63.15;30.60;;;;;;;9.27;100.00;151005.03;10609797;27;20050;-71
2024/03/04 15:48:32;;;;;;;53.58;27.65;;;;;;;9.31;100.00;151014.06;10627675;27;20092;-71
2024/03/04 15:53:34;;;;;;;53.38;27.95;;;;;;;8.99;100.00;150934.09;10632481;27;20031;-72
2024/03/04 15:58:36;;;;;;;57.53;30.17;;;;;;;8.75;100.00;150873.47;10639242;27;20073;-70
2024/03/04 16:03:37;;;;;;;53.78;29.42;;;;;;;8.64;100.00;150845.13;10626914;27;20372;-72
2024/03/04 16:08:39;;;;;;;60.90;30.20;;;;;;;8.69;100.00;150858.00;10627403;27;20063;-73
2024/03/04 16:13:41;;;;;;;56.05;27.75;;;;;;;8.40;100.00;150784.50;10627190;27;20079;-72
2024/03/04 16:18:44;;;;;;;57.42;29.00;;;;;;;8.43;100.00;150792.25;10626355;27;20129;-73
2024/03/04 16:23:46;;;;;;;54.30;28.20;;;;;;;8.58;100.00;150830.91;10626650;27;20092;-72
2024/03/04 16:28:48;;;;;;;47.45;27.00;;;;;;;8.54;100.00;150820.66;10625529;27;20082;-72
2024/03/04 16:33:49;;;;;;;59.80;28.73;;;;;;;8.52;100.00;150815.47;10602917;27;20039;-72
2024/03/04 16:38:53;;;;;;;59.08;29.90;;;;;;;8.38;100.00;150779.38;10590389;27;20499;-72
2024/03/04 16:43:54;;;;;;;62.75;30.63;;;;;;;8.44;100.00;150793.53;10582992;28;20122;-73
2024/03/04 16:48:57;;;;;;;56.38;27.65;;;;;;;8.17;100.00;150726.47;10584233;28;20058;-72
2024/03/04 16:54:02;;;;;;;55.58;27.48;;;;;;;8.29;100.00;150756.13;10565315;28;20047;-73
2024/03/04 16:59:04;;;;;;;54.22;27.90;;;;;;;8.31;100.00;150761.25;10566253;28;20499;-72
2024/03/04 17:04:05;;;;;;;57.90;28.33;;;;;;;8.27;100.00;150750.94;10585400;28;20046;-72
2024/03/04 17:09:07;;;;;;;53.28;26.90;;;;;;;8.26;100.00;150748.38;10584653;28;20044;-72
2024/03/04 17:14:09;;;;;;;50.55;28.52;;;;;;;8.25;100.00;150745.81;10563606;28;20487;-71
2024/03/04 17:19:11;;;;;;;61.65;28.48;;;;;;;8.14;100.00;150718.72;10563655;28;20051;-70
2024/03/04 17:24:13;;;;;;;58.83;28.42;;;;;;;8.01;100.00;150686.53;10581373;28;20044;-70
2024/03/04 17:29:15;;;;;;;63.13;29.38;;;;;;;8.11;100.00;150711.03;10582019;28;20047;-70
2024/03/04 17:34:16;;;;;;;43.97;24.98;;;;;;;8.18;100.00;150729.03;10582026;28;20046;-72
2024/03/04 17:39:18;;;;;;;49.15;25.95;;;;;;;8.03;100.00;150691.69;10582410;28;20130;-71
2024/03/04 17:44:20;;;;;;;47.47;27.00;;;;;;;8.12;100.00;150713.59;10590545;28;20116;-71
2024/03/04 17:49:22;;;;;;;45.88;26.23;;;;;;;8.05;100.00;150695.53;10590913;28;20484;-71
2024/03/04 17:54:24;;;;;;;54.75;25.80;;;;;;;7.80;100.00;150632.44;10589952;28;20089;-72
2024/03/04 17:59:26;;;;;;;57.47;27.08;;;;;;;7.71;100.00;150610.53;10590276;28;20073;-71
2024/03/04 18:04:29;;;;;;;56.78;26.98;;;;;;;7.98;100.00;150677.53;10572347;28;20135;-70
2024/03/04 18:09:30;;;;;;;55.50;26.92;;;;;;;7.64;100.00;150591.19;10590528;28;20051;-70
2024/03/04 18:14:32;;;;;;;54.53;28.17;;;;;;;7.53;100.00;150565.44;10590407;28;20051;-70
2024/03/04 18:19:34;;;;;;;59.95;27.80;;;;;;;7.56;100.00;150573.13;10590105;28;20047;-70
2024/03/04 18:24:36;;;;;;;65.65;29.17;;;;;;;7.69;100.00;150604.06;10589644;28;20036;-71
2024/03/04 18:29:39;;;;;;;59.95;28.55;;;;;;;7.52;100.00;150561.53;10590235;28;20057;-72
2024/03/04 18:34:41;;;;;;;66.85;30.38;;;;;;;7.49;100.00;150555.13;10590330;28;20036;-70
2024/03/04 18:39:44;;;;;;;58.97;28.27;;;;;;;7.75;100.00;150619.53;10589549;28;20050;-71
2024/03/04 18:44:47;;;;;;;63.13;28.27;;;;;;;7.91;100.00;150659.47;10587408;28;20039;-71
2024/03/04 18:49:51;;;;;;;65.78;29.92;;;;;;;7.87;100.00;150649.16;10588129;28;20553;-70
2024/03/04 18:54:53;;;;;;;60.60;29.42;;;;;;;7.71;100.00;150609.25;10569830;28;20047;-71
2024/03/04 18:59:55;;;;;;;66.68;29.88;;;;;;;7.75;100.00;150619.53;10590731;28;20081;-73
2024/03/04 19:04:57;;;;;;;69.65;29.70;;;;;;;7.74;100.00;150618.22;10574834;28;20120;-73
2024/03/04 19:10:06;;;;;;;65.10;28.67;;;;;;;7.68;100.00;150601.50;10595134;28;20059;-73
2024/03/04 19:15:09;;;;;;;51.70;25.83;;;;;;;7.48;100.00;150552.56;10578335;28;20039;-74
2024/03/04 19:20:11;;;;;;;60.72;28.20;;;;;;;7.45;100.00;150544.81;10596905;28;20497;-73
2024/03/04 19:25:13;;;;;;;69.60;28.90;;;;;;;7.34;100.00;150517.75;10578277;28;20043;-75
2024/03/04 19:30:15;;;;;;;54.70;27.52;;;;;;;7.54;100.00;150568.00;10596802;28;20048;-73
2024/03/04 19:35:17;;;;;;;60.10;28.40;;;;;;;7.75;100.00;150620.84;10596273;28;20032;-73
2024/03/04 19:40:19;;;;;;;53.65;26.33;;;;;;;7.71;100.00;150609.25;10596934;28;20043;-73
2024/03/04 19:45:23;;;;;;;63.33;30.15;;;;;;;7.52;100.00;150562.81;10595607;28;20076;-74
2024/03/04 19:50:27;;;;;;;74.03;29.65;;;;;;;7.43;100.00;150539.63;10594583;28;20043;-75
2024/03/04 19:55:29;;;;;;;66.15;29.95;;;;;;;7.44;100.00;150542.25;10594727;28;20503;-74
2024/03/04 20:00:31;;;;;;;68.30;29.50;;;;;;;7.48;100.00;150551.22;10559121;28;20051;-74
2024/03/04 20:05:33;;;;;;;55.95;27.48;;;;;;;7.69;100.00;150604.06;10575318;28;20046;-74
2024/03/04 20:10:38;;;;;;;73.40;31.17;;;;;;;7.81;100.00;150636.28;10593119;28;20043;-75
2024/03/04 20:15:40;;;;;;;77.53;31.95;;;;;;;7.66;100.00;150596.31;10592266;28;20115;-77
2024/03/04 20:20:42;;;;;;;67.05;28.77;;;;;;;7.56;100.00;150573.13;10591649;28;20047;-75
2024/03/04 20:25:44;;;;;;;71.95;31.33;;;;;;;7.71;100.00;150610.53;10573367;28;20065;-75
2024/03/04 20:30:46;;;;;;;68.97;29.77;;;;;;;7.81;100.00;150636.28;10572702;28;20094;-74
2024/03/04 20:35:48;;;;;;;64.40;29.77;;;;;;;7.78;100.00;150628.53;10591490;28;20039;-74
2024/03/04 20:40:50;;;;;;;70.57;31.00;;;;;;;7.72;100.00;150613.09;10573779;28;20048;-73
2024/03/04 20:45:52;;;;;;;71.32;30.52;;;;;;;7.86;100.00;150646.59;10571776;28;20150;-74
2024/03/04 20:50:54;;;;;;;67.95;30.10;;;;;;;7.71;100.00;150609.25;10590026;28;20098;-72
2024/03/04 20:55:56;;;;;;;70.68;30.73;;;;;;;7.62;100.00;150587.34;10588553;28;20071;-73
2024/03/04 21:00:58;;;;;;;74.95;32.20;;;;;;;7.47;100.00;150549.94;10586794;28;20054;-74
2024/03/04 21:06:01;;;;;;;86.18;33.90;;;;;;;7.37;100.00;150524.19;10570100;28;20085;-74
2024/03/04 21:11:03;;;;;;;72.80;32.75;;;;;;;7.57;100.00;150574.47;10549517;28;20100;-72
2024/03/04 21:16:05;;;;;;;71.68;30.88;;;;;;;7.58;100.00;150578.31;10582971;28;20044;-71
2024/03/04 21:21:07;;;;;;;82.38;34.33;;;;;;;7.46;100.00;150546.09;10564446;28;20051;-72
2024/03/04 21:26:09;;;;;;;80.65;32.95;;;;;;;7.35;100.00;150519.06;10582892;28;20035;-72
2024/03/04 21:31:12;;;;;;;86.72;33.40;;;;;;;7.34;100.00;150517.75;10582297;28;20114;-72
2024/03/04 21:36:13;;;;;;;87.43;34.08;;;;;;;7.31;100.00;150508.75;10582374;28;20092;-71
2024/03/04 21:41:17;;;;;;;91.10;35.60;;;;;;;7.28;100.00;150501.03;10582203;28;20074;-72
2024/03/04 21:46:19;;;;;;;84.18;35.50;;;;;;;7.13;100.00;150463.69;10581852;28;20074;-72
2024/03/04 21:51:21;;;;;;;92.63;36.10;;;;;;;7.08;100.00;150452.09;10582542;28;20457;-72
2024/03/04 21:56:23;;;;;;;92.45;35.80;;;;;;;6.98;100.00;150425.03;10581278;28;20040;-71
2024/03/04 22:01:25;;;;;;;79.70;34.13;;;;;;;7.03;100.00;150439.19;10582249;28;20453;-72
2024/03/04 22:06:27;;;;;;;81.57;33.72;;;;;;;7.04;100.00;150440.53;10583716;28;20040;-72
2024/03/04 22:11:29;;;;;;;101.82;36.92;;;;;;;7.07;100.00;150448.22;10582922;28;20473;-71
2024/03/04 22:16:30;;;;;;;88.43;35.17;;;;;;;7.04;100.00;150441.81;10564801;28;20415;-71
2024/03/04 22:21:32;;;;;;;85.57;33.95;;;;;;;7.10;100.00;150454.66;10583923;28;20040;-71
2024/03/04 22:26:35;;;;;;;91.75;33.88;;;;;;;7.00;100.00;150430.22;10586559;28;20043;-71
2024/03/04 22:31:41;;;;;;;76.10;31.30;;;;;;;7.14;100.00;150466.25;10573376;28;20402;-71
2024/03/04 22:36:43;;;;;;;93.18;34.75;;;;;;;7.16;100.00;150470.09;10554593;28;20054;-72
2024/03/04 22:41:46;;;;;;;86.85;34.65;;;;;;;6.98;100.00;150426.31;10589967;28;20039;-72
2024/03/04 22:46:48;;;;;;;92.93;34.97;;;;;;;7.00;100.00;150430.22;10589268;28;20059;-71